createdAt,value
2018-07-14T00:00:18.469Z,97557.78
2018-07-14T00:02:47.236Z,97552.97
2018-07-14T00:05:15.951Z,97556.70
2018-07-14T00:07:44.848Z,97555.52
2018-07-14T00:10:13.695Z,97555.37
2018-07-14T00:12:42.569Z,97564.52
2018-07-14T00:15:11.500Z,97562.51
2018-07-14T00:17:40.457Z,97560.77
2018-07-14T00:20:09.139Z,97559.11
2018-07-14T00:22:37.961Z,97560.53
2018-07-14T00:25:07.036Z,97556.53
2018-07-14T00:27:35.704Z,97553.27
2018-07-14T00:30:04.804Z,97554.55
2018-07-14T00:32:33.470Z,97555.13
2018-07-14T00:35:02.225Z,97553.25
2018-07-14T00:37:30.959Z,97556.73
2018-07-14T00:40:00.109Z,97554.39
2018-07-14T00:42:28.880Z,97551.59
2018-07-14T00:44:57.665Z,97553.56
2018-07-14T00:47:26.467Z,97548.53
2018-07-14T00:49:55.293Z,97547.10
2018-07-14T00:52:24.345Z,97546.13
2018-07-14T00:54:53.327Z,97546.50
2018-07-14T00:57:22.153Z,97544.52
2018-07-14T00:59:51.029Z,97536.20
2018-07-14T01:02:19.716Z,97544.52
2018-07-14T01:04:48.336Z,97541.94
2018-07-14T01:07:17.683Z,97545.80
2018-07-14T01:09:46.280Z,97545.11
2018-07-14T01:12:15.008Z,97545.81
2018-07-14T01:14:43.864Z,97546.89
2018-07-14T01:17:12.675Z,97546.30
2018-07-14T01:19:41.626Z,97546.20
2018-07-14T01:22:10.535Z,97548.31
2018-07-14T01:24:39.348Z,97547.26
2018-07-14T01:27:08.040Z,97552.19
2018-07-14T01:29:36.783Z,97550.91
2018-07-14T01:32:05.575Z,97551.50
2018-07-14T01:34:34.201Z,97550.67
2018-07-14T01:37:02.850Z,97549.39
2018-07-14T01:39:31.600Z,97551.36
2018-07-14T01:42:00.481Z,97548.79
2018-07-14T01:44:29.608Z,97551.95
2018-07-14T01:46:58.283Z,97550.77
2018-07-14T01:49:27.030Z,97548.63
2018-07-14T01:51:56.175Z,97544.89
2018-07-14T01:54:25.058Z,97540.29
2018-07-14T01:56:53.856Z,97542.55
2018-07-14T01:59:22.768Z,97541.48
2018-07-14T02:01:51.396Z,97540.20
2018-07-14T02:04:20.390Z,97543.22
2018-07-14T02:06:49.099Z,97536.86
2018-07-14T02:09:17.862Z,97532.17
2018-07-14T02:11:46.776Z,97531.71
2018-07-14T02:14:15.453Z,97534.51
2018-07-14T02:16:44.509Z,97532.02
2018-07-14T02:19:13.425Z,97538.38
2018-07-14T02:21:42.003Z,97540.49
2018-07-14T02:24:10.712Z,97547.08
2018-07-14T02:26:39.367Z,97551.63
2018-07-14T02:29:08.302Z,97550.69
2018-07-14T02:31:36.935Z,97551.03
2018-07-14T02:34:05.810Z,97555.77
2018-07-14T02:36:34.613Z,97558.34
2018-07-14T02:39:03.943Z,97564.22
2018-07-14T02:41:32.661Z,97567.90
2018-07-14T02:44:01.439Z,97561.20
2018-07-14T02:46:30.116Z,97563.61
2018-07-14T02:48:59.279Z,97564.27
2018-07-14T02:51:28.351Z,97560.98
2018-07-14T02:53:57.009Z,97561.23
2018-07-14T02:56:25.690Z,97560.49
2018-07-14T02:58:55.044Z,97549.98
2018-07-14T03:01:23.791Z,97548.58
2018-07-14T03:03:52.586Z,97547.34
2018-07-14T03:06:21.481Z,97552.92
2018-07-14T03:08:50.160Z,97553.17
2018-07-14T03:11:18.951Z,97542.37
2018-07-14T03:13:48.042Z,97545.03
2018-07-14T03:16:16.935Z,97544.81
2018-07-14T03:18:45.735Z,97551.33
2018-07-14T03:21:14.589Z,97549.09
2018-07-14T03:23:43.187Z,97550.84
2018-07-14T03:26:12.147Z,97546.49
2018-07-14T03:28:41.232Z,97543.22
2018-07-14T03:31:10.058Z,97542.83
2018-07-14T03:33:38.782Z,97545.66
2018-07-14T03:36:07.512Z,97548.55
2018-07-14T03:38:36.336Z,97543.50
2018-07-14T03:41:05.279Z,97542.70
2018-07-14T03:43:34.664Z,97550.05
2018-07-14T03:46:03.449Z,97545.98
2018-07-14T03:48:32.299Z,97550.70
2018-07-14T03:51:01.119Z,97551.95
2018-07-14T03:53:29.825Z,97554.40
2018-07-14T03:55:58.691Z,97548.33
2018-07-14T03:58:27.687Z,97544.11
2018-07-14T04:00:56.302Z,97537.98
2018-07-14T04:03:25.212Z,97536.36
2018-07-14T04:05:54.233Z,97541.84
2018-07-14T04:08:23.011Z,97544.82
2018-07-14T04:10:52.144Z,97538.65
2018-07-14T04:13:21.032Z,97543.86
2018-07-14T04:15:49.895Z,97546.93
2018-07-14T04:18:18.840Z,97543.20
2018-07-14T04:20:47.995Z,97544.98
2018-07-14T04:23:16.801Z,97547.72
2018-07-14T04:25:45.558Z,97550.53
2018-07-14T04:28:14.439Z,97552.44
2018-07-14T04:30:43.104Z,97549.34
2018-07-14T04:33:12.048Z,97550.37
2018-07-14T04:35:40.994Z,97548.08
2018-07-14T04:38:09.623Z,97553.84
2018-07-14T04:40:38.867Z,97551.16
2018-07-14T04:43:07.987Z,97553.27
2018-07-14T04:45:36.747Z,97555.75
2018-07-14T04:48:05.420Z,97557.91
2018-07-14T04:50:34.436Z,97553.02
2018-07-14T04:53:03.331Z,97551.64
2018-07-14T04:55:32.015Z,97545.63
2018-07-14T04:58:00.853Z,97548.22
2018-07-14T05:00:29.736Z,97548.41
2018-07-14T05:02:58.523Z,97550.03
2018-07-14T05:05:27.232Z,97551.53
2018-07-14T05:07:56.084Z,97547.91
2018-07-14T05:10:25.680Z,97552.30
2018-07-14T05:12:54.791Z,97548.10
2018-07-14T05:15:23.547Z,97550.88
2018-07-14T05:17:52.585Z,97551.69
2018-07-14T05:20:21.227Z,97549.98
2018-07-14T05:22:49.812Z,97541.31
2018-07-14T05:25:18.660Z,97540.98
2018-07-14T05:27:47.477Z,97541.11
2018-07-14T05:30:16.056Z,97544.77
2018-07-14T05:32:45.435Z,97545.28
2018-07-14T05:35:16.639Z,97541.08
2018-07-14T05:37:46.292Z,97540.00
2018-07-14T05:40:14.980Z,97541.59
2018-07-14T05:42:43.737Z,97541.44
2018-07-14T05:45:12.352Z,97547.94
2018-07-14T05:47:40.954Z,97547.59
2018-07-14T05:50:09.782Z,97546.70
2018-07-14T05:52:38.418Z,97551.14
2018-07-14T05:55:06.996Z,97550.81
2018-07-14T05:57:36.108Z,97556.29
2018-07-14T06:00:05.664Z,97556.12
2018-07-14T06:02:34.439Z,97551.09
2018-07-14T06:05:03.219Z,97560.39
2018-07-14T06:07:31.856Z,97560.53
2018-07-14T06:10:00.556Z,97554.47
2018-07-14T06:12:29.586Z,97560.09
2018-07-14T06:14:58.246Z,97553.28
2018-07-14T06:17:26.996Z,97556.59
2018-07-14T06:19:55.743Z,97555.52
2018-07-14T06:22:24.413Z,97561.22
2018-07-14T06:24:53.104Z,97562.67
2018-07-14T06:27:21.903Z,97556.47
2018-07-14T06:29:50.603Z,97560.84
2018-07-14T06:32:19.476Z,97567.30
2018-07-14T06:34:48.115Z,97567.94
2018-07-14T06:37:16.827Z,97567.38
2018-07-14T06:39:45.752Z,97573.45
2018-07-14T06:42:14.428Z,97570.59
2018-07-14T06:44:43.252Z,97576.41
2018-07-14T06:47:12.665Z,97574.31
2018-07-14T06:49:41.710Z,97580.56
2018-07-14T06:52:10.512Z,97580.27
2018-07-14T06:54:39.173Z,97579.25
2018-07-14T06:57:07.929Z,97567.82
2018-07-14T06:59:36.711Z,97576.66
2018-07-14T07:02:06.743Z,97576.23
2018-07-14T07:04:36.864Z,97575.63
2018-07-14T07:07:06.959Z,97574.85
2018-07-14T07:09:37.411Z,97580.48
2018-07-14T07:12:06.648Z,97579.31
2018-07-14T07:14:36.202Z,97577.93
2018-07-14T07:17:06.099Z,97577.37
2018-07-14T07:19:36.908Z,97566.88
2018-07-14T07:22:06.962Z,97580.41
2018-07-14T07:24:36.840Z,97576.08
2018-07-14T07:27:06.960Z,97571.55
2018-07-14T07:29:36.820Z,97562.91
2018-07-14T07:32:06.830Z,97565.23
2018-07-14T07:34:35.497Z,97565.17
2018-07-14T07:37:10.119Z,97565.43
2018-07-14T07:39:40.358Z,97561.36
2018-07-14T07:42:11.039Z,97562.91
2018-07-14T07:44:42.391Z,97565.68
2018-07-14T07:47:14.567Z,97564.86
2018-07-14T07:49:45.176Z,97565.43
2018-07-14T07:52:15.596Z,97562.67
2018-07-14T07:54:45.511Z,97557.73
2018-07-14T07:57:15.079Z,97563.77
2018-07-14T07:59:46.178Z,97568.25
2018-07-14T08:02:15.371Z,97569.70
2018-07-14T08:04:45.740Z,97565.69
2018-07-14T08:07:15.704Z,97563.13
2018-07-14T08:09:45.772Z,97568.31
2018-07-14T08:12:16.636Z,97561.14
2018-07-14T08:14:46.875Z,97575.13
2018-07-14T08:17:15.439Z,97566.26
2018-07-14T08:19:48.399Z,97562.97
2018-07-14T08:22:17.875Z,97568.64
2018-07-14T08:24:46.632Z,97565.02
2018-07-14T08:27:15.756Z,97566.30
2018-07-14T08:29:45.310Z,97573.81
2018-07-14T08:32:15.422Z,97566.56
2018-07-14T08:34:45.224Z,97570.33
2018-07-14T08:37:14.534Z,97571.55
2018-07-14T08:39:44.910Z,97570.08
2018-07-14T08:42:16.157Z,97574.68
2018-07-14T08:44:45.223Z,97568.63
2018-07-14T08:47:14.683Z,97573.92
2018-07-14T08:49:45.112Z,97575.05
2018-07-14T08:52:15.519Z,97578.98
2018-07-14T08:54:45.862Z,97579.64
2018-07-14T08:57:17.385Z,97582.06
2018-07-14T08:59:46.519Z,97586.39
2018-07-14T09:02:17.289Z,97585.41
2018-07-14T09:04:45.980Z,97577.80
2018-07-14T09:07:16.232Z,97578.24
2018-07-14T09:09:47.294Z,97577.39
2018-07-14T09:12:18.692Z,97572.35
2018-07-14T09:14:49.837Z,97583.45
2018-07-14T09:17:20.175Z,97574.02
2018-07-14T09:19:50.516Z,97576.03
2018-07-14T09:22:21.897Z,97576.39
2018-07-14T09:24:51.502Z,97562.13
2018-07-14T09:27:21.085Z,97572.94
2018-07-14T09:29:49.655Z,97575.88
2018-07-14T09:32:18.342Z,97571.22
2018-07-14T09:34:47.904Z,97568.64
2018-07-14T09:37:18.257Z,97561.98
2018-07-14T09:39:48.351Z,97567.88
2018-07-14T09:42:18.651Z,97564.99
2018-07-14T09:44:49.612Z,97568.63
2018-07-14T09:47:19.771Z,97561.48
2018-07-14T09:49:48.411Z,97561.95
2018-07-14T09:52:17.233Z,97556.23
2018-07-14T09:54:46.761Z,97559.23
2018-07-14T09:57:16.555Z,97552.25
2018-07-14T09:59:46.406Z,97551.25
2018-07-14T10:02:16.171Z,97542.83
2018-07-14T10:04:45.604Z,97544.48
2018-07-14T10:07:16.404Z,97543.65
2018-07-14T10:09:45.833Z,97543.69
2018-07-14T10:12:16.625Z,97534.66
2018-07-14T10:14:46.220Z,97537.90
2018-07-14T10:17:16.140Z,97542.27
2018-07-14T10:19:46.364Z,97535.52
2018-07-14T10:22:15.825Z,97543.02
2018-07-14T10:24:45.212Z,97536.31
2018-07-14T10:27:13.777Z,97536.73
2018-07-14T10:29:42.504Z,97528.65
2018-07-14T10:32:11.133Z,97538.80
2018-07-14T10:34:39.807Z,97537.25
2018-07-14T10:37:08.509Z,97528.60
2018-07-14T10:39:37.481Z,97525.56
2018-07-14T10:42:06.129Z,97522.62
2018-07-14T10:44:34.673Z,97517.57
2018-07-14T10:47:03.463Z,97514.72
2018-07-14T10:49:32.263Z,97518.58
2018-07-14T10:52:00.829Z,97508.70
2018-07-14T10:54:29.371Z,97509.52
2018-07-14T10:56:58.068Z,97516.06
2018-07-14T10:59:26.674Z,97510.95
2018-07-14T11:01:55.449Z,97509.58
2018-07-14T11:04:24.869Z,97504.59
2018-07-14T11:06:53.673Z,97505.47
2018-07-14T11:09:22.244Z,97497.31
2018-07-14T11:11:51.908Z,97492.57
2018-07-14T11:14:20.576Z,97498.84
2018-07-14T11:16:51.034Z,97504.39
2018-07-14T11:19:19.880Z,97500.11
2018-07-14T11:21:48.799Z,97492.41
2018-07-14T11:24:18.088Z,97493.45
2018-07-14T11:26:46.789Z,97493.41
2018-07-14T11:29:15.680Z,97481.54
2018-07-14T11:31:44.548Z,97487.45
2018-07-14T11:34:13.156Z,97486.80
2018-07-14T11:36:41.893Z,97490.19
2018-07-14T11:39:11.025Z,97486.09
2018-07-14T11:41:39.627Z,97489.50
2018-07-14T11:44:08.407Z,97488.58
2018-07-14T11:46:37.123Z,97484.72
2018-07-14T11:49:05.826Z,97482.59
2018-07-14T11:51:34.568Z,97482.59
2018-07-14T11:54:03.440Z,97478.19
2018-07-14T11:56:32.074Z,97475.33
2018-07-14T11:59:00.736Z,97474.29
2018-07-14T12:01:29.648Z,97469.27
2018-07-14T12:03:58.277Z,97462.94
2018-07-14T12:06:26.923Z,97455.59
2018-07-14T12:08:55.505Z,97454.67
2018-07-14T12:11:24.231Z,97453.33
2018-07-14T12:13:52.884Z,97457.45
2018-07-14T12:16:21.532Z,97455.23
2018-07-14T12:18:50.148Z,97449.39
2018-07-14T12:21:18.760Z,97452.00
2018-07-14T12:23:47.547Z,97451.53
2018-07-14T12:26:16.540Z,97449.83
2018-07-14T12:28:45.100Z,97455.91
2018-07-14T12:31:13.792Z,97436.06
2018-07-14T12:33:42.499Z,97441.57
2018-07-14T12:36:11.266Z,97439.51
2018-07-14T12:38:39.896Z,97437.94
2018-07-14T12:41:08.584Z,97444.43
2018-07-14T12:43:37.540Z,97440.95
2018-07-14T12:46:06.372Z,97432.91
2018-07-14T12:48:35.021Z,97429.23
2018-07-14T12:51:03.692Z,97429.32
2018-07-14T12:53:32.511Z,97418.08
2018-07-14T12:56:01.052Z,97431.23
2018-07-14T12:58:29.701Z,97432.84
2018-07-14T13:00:58.583Z,97421.89
2018-07-14T13:03:27.616Z,97416.59
2018-07-14T13:05:56.479Z,97414.09
2018-07-14T13:08:25.148Z,97408.85
2018-07-14T13:10:53.803Z,97408.52
2018-07-14T13:13:22.424Z,97406.45
2018-07-14T13:15:51.542Z,97408.66
2018-07-14T13:18:20.172Z,97397.05
2018-07-14T13:20:48.903Z,97391.30
2018-07-14T13:23:17.692Z,97397.33
2018-07-14T13:25:46.324Z,97393.00
2018-07-14T13:28:15.158Z,97398.66
2018-07-14T13:30:43.814Z,97399.00
2018-07-14T13:33:12.471Z,97403.08
2018-07-14T13:35:41.302Z,97389.36
2018-07-14T13:38:09.968Z,97390.50
2018-07-14T13:40:38.675Z,97393.53
2018-07-14T13:43:07.210Z,97395.64
2018-07-14T13:45:35.834Z,97393.58
2018-07-14T13:48:04.587Z,97392.67
2018-07-14T13:50:33.163Z,97385.85
2018-07-14T13:53:02.032Z,97384.71
2018-07-14T13:55:30.736Z,97380.14
2018-07-14T13:57:59.353Z,97371.26
2018-07-14T14:00:27.971Z,97367.60
2018-07-14T14:02:56.587Z,97367.29
2018-07-14T14:05:25.328Z,97369.92
2018-07-14T14:07:54.312Z,97376.48
2018-07-14T14:10:23.091Z,97382.88
2018-07-14T14:12:51.751Z,97370.98
2018-07-14T14:15:20.679Z,97369.58
2018-07-14T14:17:49.316Z,97367.02
2018-07-14T14:20:18.236Z,97368.39
2018-07-14T14:22:47.081Z,97367.24
2018-07-14T14:25:15.749Z,97362.37
2018-07-14T14:27:44.408Z,97363.48
2018-07-14T14:30:13.161Z,97367.95
2018-07-14T14:32:41.905Z,97361.69
2018-07-14T14:35:10.708Z,97361.41
2018-07-14T14:37:39.668Z,97357.10
2018-07-14T14:40:09.968Z,97361.73
2018-07-14T14:42:38.791Z,97351.96
2018-07-14T14:45:07.716Z,97350.55
2018-07-14T14:47:36.459Z,97347.23
2018-07-14T14:50:05.361Z,97348.14
2018-07-14T14:52:33.960Z,97345.27
2018-07-14T14:55:02.488Z,97349.73
2018-07-14T14:57:31.450Z,97358.01
2018-07-14T15:00:00.117Z,97355.50
2018-07-14T15:02:28.948Z,97352.28
2018-07-14T15:04:57.777Z,97354.48
2018-07-14T15:07:26.773Z,97344.69
2018-07-14T15:09:55.427Z,97343.72
2018-07-14T15:12:24.455Z,97340.13
2018-07-14T15:14:53.093Z,97338.91
2018-07-14T15:17:21.631Z,97340.18
2018-07-14T15:19:50.321Z,97342.64
2018-07-14T15:22:18.932Z,97333.03
2018-07-14T15:24:47.536Z,97330.73
2018-07-14T15:27:16.267Z,97332.42
2018-07-14T15:29:45.148Z,97324.95
2018-07-14T15:32:13.934Z,97320.01
2018-07-14T15:34:42.726Z,97317.83
2018-07-14T15:37:11.282Z,97317.30
2018-07-14T15:39:40.249Z,97315.88
2018-07-14T15:42:08.952Z,97310.91
2018-07-14T15:44:37.860Z,97313.63
2018-07-14T15:47:06.883Z,97311.72
2018-07-14T15:49:35.775Z,97315.66
2018-07-14T15:52:04.540Z,97312.44
2018-07-14T15:54:33.211Z,97312.66
2018-07-14T15:57:02.083Z,97312.53
2018-07-14T15:59:30.671Z,97309.40
2018-07-14T16:01:59.481Z,97312.81
2018-07-14T16:04:28.071Z,97308.80
2018-07-14T16:06:56.890Z,97304.39
2018-07-14T16:09:25.692Z,97312.90
2018-07-14T16:11:54.643Z,97305.93
2018-07-14T16:14:23.304Z,97312.59
2018-07-14T16:16:52.072Z,97318.27
2018-07-14T16:19:20.655Z,97314.56
2018-07-14T16:21:49.241Z,97315.76
2018-07-14T16:24:17.840Z,97314.62
2018-07-14T16:26:46.759Z,97306.26
2018-07-14T16:29:15.395Z,97309.05
2018-07-14T16:31:43.992Z,97307.50
2018-07-14T16:34:13.033Z,97308.32
2018-07-14T16:36:41.735Z,97306.26
2018-07-14T16:39:11.111Z,97301.02
2018-07-14T16:41:40.723Z,97295.66
2018-07-14T16:44:09.583Z,97298.51
2018-07-14T16:46:38.168Z,97300.25
2018-07-14T16:49:07.007Z,97298.45
2018-07-14T16:51:35.636Z,97297.20
2018-07-14T16:54:05.622Z,97301.36
2018-07-14T16:56:34.228Z,97295.64
2018-07-14T16:59:03.082Z,97294.14
2018-07-14T17:01:31.807Z,97295.39
2018-07-14T17:04:01.062Z,97295.22
2018-07-14T17:06:29.790Z,97301.45
2018-07-14T17:08:58.447Z,97292.30
2018-07-14T17:11:27.048Z,97289.64
2018-07-14T17:13:55.648Z,97285.37
2018-07-14T17:16:24.611Z,97286.90
2018-07-14T17:18:53.264Z,97284.36
2018-07-14T17:21:22.054Z,97285.64
2018-07-14T17:23:50.704Z,97283.59
2018-07-14T17:26:19.560Z,97280.20
2018-07-14T17:28:48.451Z,97288.70
2018-07-14T17:31:17.402Z,97277.96
2018-07-14T17:33:46.304Z,97274.23
2018-07-14T17:36:14.991Z,97277.72
2018-07-14T17:38:43.598Z,97275.67
2018-07-14T17:41:12.468Z,97274.56
2018-07-14T17:43:41.248Z,97277.30
2018-07-14T17:46:10.122Z,97272.88
2018-07-14T17:48:38.899Z,97274.36
2018-07-14T17:51:07.748Z,97271.38
2018-07-14T17:53:36.685Z,97270.73
2018-07-14T17:56:05.727Z,97268.10
2018-07-14T17:58:34.348Z,97264.31
2018-07-14T18:01:03.408Z,97261.75
2018-07-14T18:03:32.192Z,97268.70
2018-07-14T18:06:00.887Z,97270.33
2018-07-14T18:08:29.743Z,97265.72
2018-07-14T18:10:58.535Z,97266.34
2018-07-14T18:13:27.215Z,97264.35
2018-07-14T18:15:56.013Z,97266.34
2018-07-14T18:18:25.207Z,97269.28
2018-07-14T18:20:54.403Z,97261.64
2018-07-14T18:23:27.259Z,97256.39
2018-07-14T18:25:56.060Z,97260.31
2018-07-14T18:28:26.020Z,97264.50
2018-07-14T18:30:55.704Z,97267.74
2018-07-14T18:33:26.259Z,97265.48
2018-07-14T18:35:54.952Z,97265.80
2018-07-14T18:38:23.780Z,97259.30
2018-07-14T18:40:52.544Z,97269.27
2018-07-14T18:43:21.414Z,97266.48
2018-07-14T18:45:50.368Z,97272.88
2018-07-14T18:48:19.184Z,97271.23
2018-07-14T18:50:47.955Z,97274.00
2018-07-14T18:53:16.607Z,97279.77
2018-07-14T18:55:45.524Z,97274.61
2018-07-14T18:58:14.508Z,97270.80
2018-07-14T19:00:43.190Z,97277.23
2018-07-14T19:03:12.019Z,97278.27
2018-07-14T19:05:41.002Z,97279.77
2018-07-14T19:08:09.631Z,97285.34
2018-07-14T19:10:38.772Z,97281.83
2018-07-14T19:13:07.735Z,97285.39
2018-07-14T19:15:36.324Z,97287.86
2018-07-14T19:18:05.156Z,97295.20
2018-07-14T19:20:33.724Z,97291.59
2018-07-14T19:23:02.459Z,97291.27
2018-07-14T19:25:31.556Z,97295.17
2018-07-14T19:28:00.240Z,97292.53
2018-07-14T19:30:28.851Z,97297.26
2018-07-14T19:32:57.552Z,97299.20
2018-07-14T19:35:26.315Z,97300.17
2018-07-14T19:37:55.050Z,97316.73
2018-07-14T19:40:24.041Z,97310.86
2018-07-14T19:42:52.973Z,97315.71
2018-07-14T19:45:21.618Z,97320.41
2018-07-14T19:47:50.428Z,97316.60
2018-07-14T19:50:19.271Z,97325.67
2018-07-14T19:52:48.049Z,97319.32
2018-07-14T19:55:16.723Z,97319.94
2018-07-14T19:57:45.516Z,97327.39
2018-07-14T20:00:14.204Z,97328.66
2018-07-14T20:02:42.968Z,97330.23
2018-07-14T20:05:11.716Z,97330.03
2018-07-14T20:07:40.492Z,97327.88
2018-07-14T20:10:09.168Z,97327.59
2018-07-14T20:12:37.932Z,97332.09
2018-07-14T20:15:06.670Z,97324.44
2018-07-14T20:17:35.635Z,97327.34
2018-07-14T20:20:04.544Z,97332.66
2018-07-14T20:22:33.186Z,97332.78
2018-07-14T20:25:02.147Z,97329.75
2018-07-14T20:27:30.772Z,97327.89
2018-07-14T20:29:59.525Z,97334.63
2018-07-14T20:32:28.378Z,97328.69
2018-07-14T20:34:57.049Z,97331.22
2018-07-14T20:37:25.700Z,97335.84
2018-07-14T20:39:54.410Z,97331.84
2018-07-14T20:42:23.094Z,97330.66
2018-07-14T20:44:51.689Z,97330.52
2018-07-14T20:47:20.564Z,97335.36
2018-07-14T20:49:49.140Z,97332.58
2018-07-14T20:52:18.001Z,97326.89
2018-07-14T20:54:46.915Z,97332.19
2018-07-14T20:57:15.548Z,97338.89
2018-07-14T20:59:44.310Z,97335.45
2018-07-14T21:02:13.227Z,97337.32
2018-07-14T21:04:41.833Z,97347.20
2018-07-14T21:07:10.484Z,97339.94
2018-07-14T21:09:39.160Z,97345.06
2018-07-14T21:12:08.393Z,97344.52
2018-07-14T21:14:37.107Z,97344.08
2018-07-14T21:17:19.415Z,97342.89
2018-07-14T21:20:06.040Z,97345.84
2018-07-14T21:23:01.272Z,97342.09
2018-07-14T21:25:30.651Z,97339.34
2018-07-14T21:27:59.371Z,97343.46
2018-07-14T21:30:28.120Z,97343.73
2018-07-14T21:32:56.853Z,97346.28
2018-07-14T21:35:25.560Z,97345.85
2018-07-14T21:37:54.546Z,97351.58
2018-07-14T21:40:23.361Z,97348.44
2018-07-14T21:42:52.193Z,97348.54
2018-07-14T21:45:20.866Z,97344.73
2018-07-14T21:47:49.616Z,97352.00
2018-07-14T21:50:18.494Z,97350.23
2018-07-14T21:52:47.674Z,97345.88
2018-07-14T21:55:16.532Z,97347.56
2018-07-14T21:57:45.198Z,97350.84
2018-07-14T22:00:29.675Z,97349.97
2018-07-14T22:02:58.497Z,97341.20
2018-07-14T22:05:27.532Z,97350.20
2018-07-14T22:07:56.417Z,97345.56
2018-07-14T22:10:25.194Z,97342.89
2018-07-14T22:12:54.322Z,97346.72
2018-07-14T22:15:23.645Z,97348.54
2018-07-14T22:17:53.075Z,97350.16
2018-07-14T22:20:21.956Z,97356.59
2018-07-14T22:22:50.868Z,97357.06
2018-07-14T22:25:20.219Z,97350.30
2018-07-14T22:27:49.013Z,97355.27
2018-07-14T22:30:17.915Z,97350.95
2018-07-14T22:32:46.853Z,97354.66
2018-07-14T22:35:15.491Z,97353.63
2018-07-14T22:37:44.510Z,97363.30
2018-07-14T22:40:13.675Z,97361.56
2018-07-14T22:42:42.656Z,97358.71
2018-07-14T22:45:11.331Z,97359.36
2018-07-14T22:47:40.286Z,97363.02
2018-07-14T22:50:08.967Z,97367.60
2018-07-14T22:52:37.787Z,97364.45
2018-07-14T22:55:07.191Z,97362.48
2018-07-14T22:57:35.968Z,97366.63
2018-07-14T23:00:06.199Z,97366.27
2018-07-14T23:02:35.131Z,97370.66
2018-07-14T23:05:03.883Z,97364.87
2018-07-14T23:07:32.655Z,97368.52
2018-07-14T23:10:01.659Z,97362.21
2018-07-14T23:12:30.361Z,97364.32
2018-07-14T23:14:59.408Z,97364.62
2018-07-14T23:17:27.980Z,97365.66
2018-07-14T23:19:56.985Z,97358.48
2018-07-14T23:22:25.700Z,97368.02
2018-07-14T23:24:54.517Z,97363.69
2018-07-14T23:27:23.625Z,97369.28
2018-07-14T23:29:52.545Z,97361.06
2018-07-14T23:32:21.347Z,97359.55
2018-07-14T23:34:50.037Z,97356.49
2018-07-14T23:37:18.733Z,97367.52
2018-07-14T23:39:47.335Z,97357.92
2018-07-14T23:42:16.076Z,97355.57
2018-07-14T23:44:45.036Z,97346.55
2018-07-14T23:49:47.687Z,97353.62
2018-07-14T23:52:16.446Z,97347.30
2018-07-14T23:54:45.448Z,97353.73
2018-07-14T23:57:14.217Z,97352.34
2018-07-14T23:59:43.158Z,97347.87
